Aviation Digital Data Service (ADDS)

Output produced by METARs form (0346 UTC 18 June 2019)
found at http://www.aviationweather.gov/metar/data/
 
METAR text: VEIM 180330Z 10004KT 4000 BR SCT018 SCT100 28/25 Q1005 NOSIG
Conditions at: VEIM (IMPHAL/TULIHAL , IN) observed 0330 UTC 18 June 2019
Temperature: 28.0°C (82°F)
Dewpoint: 25.0°C (77°F) [RH = 84%]
Pressure (altimeter): 29.68 inches Hg (1005.0 mb)
Winds: from the E (100 degrees) at 5 MPH (4 knots; 2.1 m/s)
Visibility: 2.49 miles (4.01 km)
Ceiling: at least 12,000 feet AGL
Clouds: scattered clouds at 1800 feet AGL
scattered clouds at 10000 feet AGL
Weather: BR  (mist)

METAR text: VEIM 180300Z 12004KT 3000 BR SCT018 SCT100 28/25 Q1006 NOSIG
Conditions at: VEIM (IMPHAL/TULIHAL , IN) observed 0300 UTC 18 June 2019
Temperature: 28.0°C (82°F)
Dewpoint: 25.0°C (77°F) [RH = 84%]
Pressure (altimeter): 29.70 inches Hg (1006.0 mb)
Winds: from the ESE (120 degrees) at 5 MPH (4 knots; 2.1 m/s)
Visibility: 1.86 miles (2.99 km)
Ceiling: at least 12,000 feet AGL
Clouds: scattered clouds at 1800 feet AGL
scattered clouds at 10000 feet AGL
Weather: BR  (mist)

METAR text: VEIM 171200Z 27006KT 5000 BR SCT018 BKN100 29/25 Q1003 NOSIG
Conditions at: VEIM (IMPHAL/TULIHAL , IN) observed 1200 UTC 17 June 2019
Temperature: 29.0°C (84°F)
Dewpoint: 25.0°C (77°F) [RH = 79%]
Pressure (altimeter): 29.62 inches Hg (1003.0 mb)
Winds: from the W (270 degrees) at 7 MPH (6 knots; 3.1 m/s)
Visibility: 3 miles ( 5 km)
Ceiling: 10000 feet AGL
Clouds: scattered clouds at 1800 feet AGL
broken clouds at 10000 feet AGL
Weather: BR  (mist)

METAR text: VEIM 171100Z 29005KT 5000 HZ SCT018 BKN100 30/21 Q1003 NOSIG
Conditions at: VEIM (IMPHAL/TULIHAL , IN) observed 1100 UTC 17 June 2019
Temperature: 30.0°C (86°F)
Dewpoint: 21.0°C (70°F) [RH = 59%]
Pressure (altimeter): 29.62 inches Hg (1003.0 mb)
Winds: from the WNW (290 degrees) at 6 MPH (5 knots; 2.6 m/s)
Visibility: 3 miles ( 5 km)
Ceiling: 10000 feet AGL
Clouds: scattered clouds at 1800 feet AGL
broken clouds at 10000 feet AGL
Weather: HZ  (haze)

METAR text: VEIM 171000Z 27004KT 5000 HZ SCT018 BKN100 30/21 Q1004 NOSIG
Conditions at: VEIM (IMPHAL/TULIHAL , IN) observed 1000 UTC 17 June 2019
Temperature: 30.0°C (86°F)
Dewpoint: 21.0°C (70°F) [RH = 59%]
Pressure (altimeter): 29.65 inches Hg (1004.0 mb)
Winds: from the W (270 degrees) at 5 MPH (4 knots; 2.1 m/s)
Visibility: 3 miles ( 5 km)
Ceiling: 10000 feet AGL
Clouds: scattered clouds at 1800 feet AGL
broken clouds at 10000 feet AGL
Weather: HZ  (haze)

METAR text: VEIM 170900Z 16005KT 5000 HZ SCT018 BKN100 31/21 Q1004 NOSIG
Conditions at: VEIM (IMPHAL/TULIHAL , IN) observed 0900 UTC 17 June 2019
Temperature: 31.0°C (88°F)
Dewpoint: 21.0°C (70°F) [RH = 55%]
Pressure (altimeter): 29.65 inches Hg (1004.0 mb)
Winds: from the SSE (160 degrees) at 6 MPH (5 knots; 2.6 m/s)
Visibility: 3 miles ( 5 km)
Ceiling: 10000 feet AGL
Clouds: scattered clouds at 1800 feet AGL
broken clouds at 10000 feet AGL
Weather: HZ  (haze)

METAR text: VEIM 170830Z 18006KT 5000 HZ SCT018 BKN100 31/21 Q1004 NOSIG
Conditions at: VEIM (IMPHAL/TULIHAL , IN) observed 0830 UTC 17 June 2019
Temperature: 31.0°C (88°F)
Dewpoint: 21.0°C (70°F) [RH = 55%]
Pressure (altimeter): 29.65 inches Hg (1004.0 mb)
Winds: from the S (180 degrees) at 7 MPH (6 knots; 3.1 m/s)
Visibility: 3 miles ( 5 km)
Ceiling: 10000 feet AGL
Clouds: scattered clouds at 1800 feet AGL
broken clouds at 10000 feet AGL
Weather: HZ  (haze)

METAR text: VEIM 170800Z 16004KT 5000 HZ SCT018 BKN100 31/21 Q1005 NOSIG
Conditions at: VEIM (IMPHAL/TULIHAL , IN) observed 0800 UTC 17 June 2019
Temperature: 31.0°C (88°F)
Dewpoint: 21.0°C (70°F) [RH = 55%]
Pressure (altimeter): 29.68 inches Hg (1005.0 mb)
Winds: from the SSE (160 degrees) at 5 MPH (4 knots; 2.1 m/s)
Visibility: 3 miles ( 5 km)
Ceiling: 10000 feet AGL
Clouds: scattered clouds at 1800 feet AGL
broken clouds at 10000 feet AGL
Weather: HZ  (haze)

METAR text: VEIM 170730Z 24005KT 5000 HZ SCT018 BKN100 30/21 Q1005 NOSIG
Conditions at: VEIM (IMPHAL/TULIHAL , IN) observed 0730 UTC 17 June 2019
Temperature: 30.0°C (86°F)
Dewpoint: 21.0°C (70°F) [RH = 59%]
Pressure (altimeter): 29.68 inches Hg (1005.0 mb)
Winds: from the WSW (240 degrees) at 6 MPH (5 knots; 2.6 m/s)
Visibility: 3 miles ( 5 km)
Ceiling: 10000 feet AGL
Clouds: scattered clouds at 1800 feet AGL
broken clouds at 10000 feet AGL
Weather: HZ  (haze)

METAR text: VEIM 170700Z 04002KT 5000 HZ SCT018 BKN100 30/21 Q1006 NOSIG
Conditions at: VEIM (IMPHAL/TULIHAL , IN) observed 0700 UTC 17 June 2019
Temperature: 30.0°C (86°F)
Dewpoint: 21.0°C (70°F) [RH = 59%]
Pressure (altimeter): 29.70 inches Hg (1006.0 mb)
Winds: from the NE (40 degrees) at 2 MPH (2 knots; 1.0 m/s)
Visibility: 3 miles ( 5 km)
Ceiling: 10000 feet AGL
Clouds: scattered clouds at 1800 feet AGL
broken clouds at 10000 feet AGL
Weather: HZ  (haze)

METAR text: VEIM 170600Z 17005KT 5000 BR SCT018 BKN100 28/24 Q1006 NOSIG
Conditions at: VEIM (IMPHAL/TULIHAL , IN) observed 0600 UTC 17 June 2019
Temperature: 28.0°C (82°F)
Dewpoint: 24.0°C (75°F) [RH = 79%]
Pressure (altimeter): 29.70 inches Hg (1006.0 mb)
Winds: from the S (170 degrees) at 6 MPH (5 knots; 2.6 m/s)
Visibility: 3 miles ( 5 km)
Ceiling: 10000 feet AGL
Clouds: scattered clouds at 1800 feet AGL
broken clouds at 10000 feet AGL
Weather: BR  (mist)

METAR text: VEIM 170530Z 13004KT 5000 BR SCT018 BKN100 26/21 Q1007 NOSIG
Conditions at: VEIM (IMPHAL/TULIHAL , IN) observed 0530 UTC 17 June 2019
Temperature: 26.0°C (79°F)
Dewpoint: 21.0°C (70°F) [RH = 74%]
Pressure (altimeter): 29.73 inches Hg (1007.0 mb)
Winds: from the SE (130 degrees) at 5 MPH (4 knots; 2.1 m/s)
Visibility: 3 miles ( 5 km)
Ceiling: 10000 feet AGL
Clouds: scattered clouds at 1800 feet AGL
broken clouds at 10000 feet AGL
Weather: BR  (mist)

METAR text: VEIM 170500Z 19005KT 5000 BR SCT018 BKN100 26/22 Q1007 NOSIG
Conditions at: VEIM (IMPHAL/TULIHAL , IN) observed 0500 UTC 17 June 2019
Temperature: 26.0°C (79°F)
Dewpoint: 22.0°C (72°F) [RH = 79%]
Pressure (altimeter): 29.73 inches Hg (1007.0 mb)
Winds: from the S (190 degrees) at 6 MPH (5 knots; 2.6 m/s)
Visibility: 3 miles ( 5 km)
Ceiling: 10000 feet AGL
Clouds: scattered clouds at 1800 feet AGL
broken clouds at 10000 feet AGL
Weather: BR  (mist)

METAR text: VEIM 170430Z 18006KT 5000 BR SCT018 BKN100 25/22 Q1007 NOSIG
Conditions at: VEIM (IMPHAL/TULIHAL , IN) observed 0430 UTC 17 June 2019
Temperature: 25.0°C (77°F)
Dewpoint: 22.0°C (72°F) [RH = 83%]
Pressure (altimeter): 29.73 inches Hg (1007.0 mb)
Winds: from the S (180 degrees) at 7 MPH (6 knots; 3.1 m/s)
Visibility: 3 miles ( 5 km)
Ceiling: 10000 feet AGL
Clouds: scattered clouds at 1800 feet AGL
broken clouds at 10000 feet AGL
Weather: BR  (mist)

METAR text: VEIM 170400Z 09003KT 5000 BR SCT018 BKN100 25/22 Q1007 NOSIG
Conditions at: VEIM (IMPHAL/TULIHAL , IN) observed 0400 UTC 17 June 2019
Temperature: 25.0°C (77°F)
Dewpoint: 22.0°C (72°F) [RH = 83%]
Pressure (altimeter): 29.73 inches Hg (1007.0 mb)
Winds: from the E (90 degrees) at 3 MPH (3 knots; 1.5 m/s)
Visibility: 3 miles ( 5 km)
Ceiling: 10000 feet AGL
Clouds: scattered clouds at 1800 feet AGL
broken clouds at 10000 feet AGL
Weather: BR  (mist)

METAR text: VEIM 170330Z 00000KT 4500 BR SCT018 BKN100 25/22 Q1007 BECMG 5000 BR
Conditions at: VEIM (IMPHAL/TULIHAL , IN) observed 0330 UTC 17 June 2019
Temperature: 25.0°C (77°F)
Dewpoint: 22.0°C (72°F) [RH = 83%]
Pressure (altimeter): 29.73 inches Hg (1007.0 mb)
Winds: calm
Visibility: 2.80 miles (4.51 km)
Ceiling: 10000 feet AGL
Clouds: scattered clouds at 1800 feet AGL
broken clouds at 10000 feet AGL
Weather: BR  (mist)

METAR text: VEIM 170300Z 00000KT 3000 -RA FEW010 SCT018 BKN090 23/23 Q1007 NOSIG
Conditions at: VEIM (IMPHAL/TULIHAL , IN) observed 0300 UTC 17 June 2019
Temperature: 23.0°C (73°F)
Dewpoint: 23.0°C (73°F) [RH = 100%]
Pressure (altimeter): 29.73 inches Hg (1007.0 mb)
Winds: calm
Visibility: 1.86 miles (2.99 km)
Ceiling: 9000 feet AGL
Clouds: few clouds at 1000 feet AGL
scattered clouds at 1800 feet AGL
broken clouds at 9000 feet AGL
Weather: -RA  (light rain)

Forecast for: VEIM (IMPHAL/TULIHAL , IN)
Text: TAF VEIM 180200Z 1803/1812 11004KT 3000 BR FEW010 SCT018 BKN100
Forecast period: 0300 to 0700 UTC 18 June 2019
Forecast type: FROM: standard forecast or significant change
Winds: from the ESE (110 degrees) at 5 MPH (4 knots; 2.1 m/s)
Visibility: 1.86 miles (2.99 km)
Ceiling: 10000 feet AGL
Clouds: few clouds at 1000 feet AGL
scattered clouds at 1800 feet AGL
broken clouds at 10000 feet AGL
Weather: BR  (mist)
Text: BECMG 1807/1810 15006KT 5000 HZ FEW020 SCT100
Forecast period: 0700 to 1200 UTC 18 June 2019
Forecast type: BECOMING: Conditions expected to become as follows by 1000 UTC 18 June 2019
Winds: from the SSE (150 degrees) at 7 MPH (6 knots; 3.1 m/s)
Visibility: 3 miles (5 km)
Ceiling: at least 12,000 feet AGL
Clouds: few clouds at 2000 feet AGL
scattered clouds at 10000 feet AGL
Weather: HZ  (haze)